createdAt,value
2018-12-12T00:00:36.910Z,6.83
2018-12-12T00:05:46.019Z,5.43
2018-12-12T00:10:55.413Z,6.65
2018-12-12T00:16:04.535Z,6.41
2018-12-12T00:21:13.901Z,6.20
2018-12-12T00:26:23.000Z,7.02
2018-12-12T00:31:32.377Z,7.01
2018-12-12T00:36:41.467Z,6.24
2018-12-12T00:41:50.812Z,6.92
2018-12-12T00:46:59.985Z,6.30
2018-12-12T00:52:09.291Z,7.26
2018-12-12T00:57:18.415Z,5.84
2018-12-12T01:02:27.764Z,5.32
2018-12-12T01:07:36.824Z,6.02
2018-12-12T01:12:46.309Z,6.28
2018-12-12T01:17:55.494Z,7.54
2018-12-12T01:23:04.819Z,7.17
2018-12-12T01:28:13.880Z,6.96
2018-12-12T01:33:23.258Z,7.41
2018-12-12T01:38:32.377Z,7.40
2018-12-12T01:43:41.703Z,7.23
2018-12-12T01:48:50.872Z,7.21
2018-12-12T01:54:00.141Z,7.62
2018-12-12T01:59:09.219Z,6.79
2018-12-12T02:04:18.513Z,6.57
2018-12-12T02:09:27.585Z,6.32
2018-12-12T02:14:36.957Z,6.12
2018-12-12T02:19:46.035Z,6.97
2018-12-12T02:24:55.446Z,7.07
2018-12-12T02:30:04.541Z,6.96
2018-12-12T02:35:13.819Z,6.71
2018-12-12T02:40:22.951Z,6.69
2018-12-12T02:45:32.224Z,6.78
2018-12-12T02:50:41.341Z,6.62
2018-12-12T02:55:50.731Z,6.89
2018-12-12T03:01:00.013Z,7.04
2018-12-12T03:06:09.446Z,6.81
2018-12-12T03:11:18.683Z,7.58
2018-12-12T03:16:28.021Z,7.00
2018-12-12T03:21:37.106Z,7.06
2018-12-12T03:26:46.414Z,6.91
2018-12-12T03:31:55.578Z,6.64
2018-12-12T03:37:04.946Z,6.90
2018-12-12T03:42:14.051Z,6.54
2018-12-12T03:47:23.305Z,6.29
2018-12-12T03:52:32.381Z,6.60
2018-12-12T03:57:41.755Z,7.68
2018-12-12T04:02:50.953Z,6.69
2018-12-12T04:08:00.437Z,6.05
2018-12-12T04:13:09.558Z,6.77
2018-12-12T04:18:18.920Z,5.76
2018-12-12T04:23:27.987Z,5.97
2018-12-12T04:28:37.524Z,6.95
2018-12-12T04:33:46.626Z,6.54
2018-12-12T04:38:56.008Z,6.32
2018-12-12T04:44:05.208Z,6.69
2018-12-12T04:49:14.593Z,7.96
2018-12-12T04:54:23.697Z,6.82
2018-12-12T04:59:34.973Z,7.42
2018-12-12T05:04:34.052Z,6.99
2018-12-12T05:09:43.317Z,7.81
2018-12-12T05:14:52.396Z,7.27
2018-12-12T05:20:01.726Z,7.74
2018-12-12T05:25:10.834Z,8.22
2018-12-12T05:30:20.364Z,8.78
2018-12-12T05:35:29.476Z,9.46
2018-12-12T05:40:38.837Z,10.35
2018-12-12T05:45:47.945Z,10.78
2018-12-12T05:50:57.193Z,9.36
2018-12-12T05:56:06.297Z,8.59
2018-12-12T06:01:15.705Z,11.66
2018-12-12T06:06:24.785Z,8.74
2018-12-12T06:11:34.160Z,8.45
2018-12-12T06:16:43.273Z,6.89
2018-12-12T06:21:52.612Z,6.46
2018-12-12T06:27:01.689Z,6.81
2018-12-12T06:32:11.014Z,6.59
2018-12-12T06:37:20.263Z,6.57
2018-12-12T06:42:29.756Z,7.50
2018-12-12T06:47:38.836Z,7.91
2018-12-12T06:52:48.377Z,8.36
2018-12-12T06:57:57.545Z,8.76
2018-12-12T07:03:06.823Z,8.33
2018-12-12T07:08:15.972Z,9.01
2018-12-12T07:13:25.439Z,7.78
2018-12-12T07:18:34.677Z,7.63
2018-12-12T07:23:44.061Z,7.75
2018-12-12T07:28:53.170Z,6.82
2018-12-12T07:34:02.545Z,6.34
2018-12-12T07:39:17.735Z,6.57
2018-12-12T07:44:20.537Z,6.51
2018-12-12T07:49:29.696Z,6.10
2018-12-12T07:54:38.927Z,6.25
2018-12-12T07:59:48.050Z,7.57
2018-12-12T08:04:57.456Z,7.22
2018-12-12T08:10:06.561Z,8.43
2018-12-12T08:15:15.966Z,8.07
2018-12-12T08:20:25.058Z,8.81
2018-12-12T08:25:34.473Z,7.59
2018-12-12T08:30:43.596Z,10.37
2018-12-12T08:35:51.500Z,9.07
2018-12-12T08:41:00.576Z,8.35
2018-12-12T08:46:10.026Z,8.71
2018-12-12T08:51:19.224Z,9.62
2018-12-12T08:56:28.521Z,8.23
2018-12-12T09:01:37.652Z,7.51
2018-12-12T09:06:47.036Z,7.55
2018-12-12T09:11:56.175Z,6.69
2018-12-12T09:17:09.666Z,7.18
2018-12-12T09:22:14.201Z,7.04
2018-12-12T09:27:23.589Z,7.23
2018-12-12T09:32:32.755Z,8.20
2018-12-12T09:37:40.740Z,7.60
2018-12-12T09:42:49.971Z,8.41
2018-12-12T09:47:59.309Z,7.66
2018-12-12T09:53:08.441Z,9.06
2018-12-12T09:58:17.765Z,8.50
2018-12-12T10:03:31.121Z,9.18
2018-12-12T10:08:35.800Z,9.36
2018-12-12T10:13:44.874Z,10.41
2018-12-12T10:18:54.242Z,10.44
2018-12-12T10:24:03.454Z,9.48
2018-12-12T10:29:12.821Z,10.93
2018-12-12T10:34:21.925Z,9.46
2018-12-12T10:39:31.228Z,10.93
2018-12-12T10:44:40.379Z,9.27
2018-12-12T10:49:49.783Z,9.23
2018-12-12T10:54:58.891Z,9.18
2018-12-12T11:00:12.592Z,8.79
2018-12-12T11:05:17.150Z,8.51
2018-12-12T11:10:26.576Z,9.02
2018-12-12T11:15:35.650Z,8.47
2018-12-12T11:20:44.941Z,8.79
2018-12-12T11:25:54.124Z,9.63
2018-12-12T11:31:03.485Z,10.04
2018-12-12T11:36:12.657Z,8.80
2018-12-12T11:41:22.065Z,7.53
2018-12-12T11:46:31.250Z,8.51
2018-12-12T11:51:40.632Z,9.17
2018-12-12T11:56:49.742Z,8.44
2018-12-12T12:01:59.108Z,8.77
2018-12-12T12:07:08.264Z,8.31
2018-12-12T12:12:17.592Z,8.87
2018-12-12T12:17:26.829Z,8.95
2018-12-12T12:22:36.169Z,11.03
2018-12-12T12:27:45.305Z,8.62
2018-12-12T12:32:54.703Z,8.36
2018-12-12T12:38:03.844Z,9.63
2018-12-12T12:43:13.273Z,7.78
2018-12-12T12:48:22.348Z,7.35
2018-12-12T12:53:31.706Z,6.50
2018-12-12T12:58:40.820Z,7.06
2018-12-12T13:03:50.201Z,5.99
2018-12-12T13:08:59.337Z,6.36
2018-12-12T13:14:08.827Z,7.75
2018-12-12T13:19:17.910Z,6.60
2018-12-12T13:24:27.308Z,6.57
2018-12-12T13:29:36.520Z,5.98
2018-12-12T13:34:45.843Z,7.12
2018-12-12T13:39:54.985Z,6.02
2018-12-12T13:45:04.425Z,6.04
2018-12-12T13:50:13.614Z,5.83
2018-12-12T13:55:23.008Z,7.29
2018-12-12T14:00:32.127Z,6.83
2018-12-12T14:05:41.616Z,6.76
2018-12-12T14:10:50.873Z,6.90
2018-12-12T14:16:00.240Z,7.34
2018-12-12T14:21:09.390Z,6.95
2018-12-12T14:26:18.658Z,6.91
2018-12-12T14:31:27.944Z,6.60
2018-12-12T14:36:37.504Z,7.67
2018-12-12T14:41:46.663Z,6.66
2018-12-12T14:46:56.046Z,6.86
2018-12-12T14:52:05.219Z,6.46
2018-12-12T14:57:14.597Z,7.16
2018-12-12T15:02:23.766Z,7.76
2018-12-12T15:07:33.122Z,7.60
2018-12-12T15:12:42.356Z,8.55
2018-12-12T15:17:51.864Z,8.22
2018-12-12T15:23:00.977Z,8.98
2018-12-12T15:28:10.430Z,8.08
2018-12-12T15:33:19.558Z,8.41
2018-12-12T15:38:28.929Z,8.31
2018-12-12T15:43:38.078Z,10.39
2018-12-12T15:48:47.600Z,9.11
2018-12-12T15:53:56.718Z,9.35
2018-12-12T15:59:06.093Z,8.98
2018-12-12T16:04:15.243Z,8.09
2018-12-12T16:09:24.684Z,8.71
2018-12-12T16:14:33.831Z,8.92
2018-12-12T16:19:43.238Z,7.57
2018-12-12T16:24:52.364Z,6.98
2018-12-12T16:30:01.712Z,7.46
2018-12-12T16:35:10.886Z,8.17
2018-12-12T16:40:20.208Z,5.90
2018-12-12T16:45:29.415Z,6.19
2018-12-12T16:50:38.788Z,7.18
2018-12-12T16:55:47.892Z,8.25
2018-12-12T17:00:57.358Z,8.19
2018-12-12T17:06:06.471Z,9.79
2018-12-12T17:11:15.800Z,10.88
2018-12-12T17:16:24.951Z,10.36
2018-12-12T17:21:34.332Z,12.19
2018-12-12T17:26:44.714Z,11.88
2018-12-12T17:31:44.049Z,13.17
2018-12-12T17:36:53.221Z,10.89
2018-12-12T17:42:02.530Z,11.63
2018-12-12T17:47:11.760Z,13.18
2018-12-12T17:52:22.844Z,11.08
2018-12-12T17:57:22.016Z,11.70
2018-12-12T18:02:31.444Z,11.24
2018-12-12T18:07:40.734Z,10.76
2018-12-12T18:12:50.168Z,10.76
2018-12-12T18:17:59.750Z,11.98
2018-12-12T18:23:09.020Z,10.40
2018-12-12T18:28:18.140Z,10.18
2018-12-12T18:33:27.571Z,11.94
2018-12-12T18:38:36.661Z,10.88
2018-12-12T18:43:46.059Z,11.27
2018-12-12T18:48:55.148Z,15.78
2018-12-12T18:54:04.596Z,11.85
2018-12-12T18:59:13.721Z,11.09
2018-12-12T19:04:23.113Z,11.20
2018-12-12T19:09:32.237Z,10.24
2018-12-12T19:14:41.544Z,11.69
2018-12-12T19:19:50.721Z,10.54
2018-12-12T19:25:00.026Z,10.29
2018-12-12T19:30:09.143Z,10.76
2018-12-12T19:35:18.402Z,10.38
2018-12-12T19:40:27.502Z,10.65
2018-12-12T19:45:36.840Z,12.02
2018-12-12T19:50:46.048Z,13.54
2018-12-12T19:55:55.416Z,9.97
2018-12-12T20:01:04.522Z,10.28
2018-12-12T20:06:13.859Z,12.55
2018-12-12T20:11:23.043Z,11.92
2018-12-12T20:16:32.326Z,11.05
2018-12-12T20:21:41.549Z,11.50
2018-12-12T20:26:50.970Z,10.14
2018-12-12T20:32:00.587Z,10.49
2018-12-12T20:37:09.867Z,10.84
2018-12-12T20:42:19.019Z,12.58
2018-12-12T20:47:28.321Z,12.02
2018-12-12T20:52:37.678Z,11.57
2018-12-12T20:57:47.006Z,11.92
2018-12-12T21:02:56.090Z,14.45
2018-12-12T21:08:05.531Z,14.43
2018-12-12T21:13:14.640Z,11.10
2018-12-12T21:18:24.177Z,12.26
2018-12-12T21:23:33.286Z,14.09
2018-12-12T21:28:42.665Z,11.81
2018-12-12T21:33:51.779Z,14.22
2018-12-12T21:39:01.048Z,11.99
2018-12-12T21:44:10.180Z,14.25
2018-12-12T21:49:19.540Z,12.41
2018-12-12T21:54:28.650Z,12.14
2018-12-12T21:59:38.017Z,11.68
2018-12-12T22:04:47.104Z,12.00
2018-12-12T22:09:56.372Z,14.16
2018-12-12T22:15:05.459Z,12.85
2018-12-12T22:20:14.840Z,12.18
2018-12-12T22:25:24.018Z,14.43
2018-12-12T22:30:33.442Z,11.94
2018-12-12T22:35:42.538Z,11.52
2018-12-12T22:40:51.929Z,12.84
2018-12-12T22:46:01.026Z,13.17
2018-12-12T22:51:10.425Z,12.63
2018-12-12T22:56:19.530Z,12.07
2018-12-12T23:01:28.918Z,12.24
2018-12-12T23:06:38.081Z,15.13
2018-12-12T23:11:47.339Z,12.72
2018-12-12T23:16:56.433Z,11.88
2018-12-12T23:22:05.746Z,12.51
2018-12-12T23:27:14.833Z,11.95
2018-12-12T23:32:24.089Z,11.56
2018-12-12T23:37:33.177Z,11.96
2018-12-12T23:42:42.374Z,13.00
2018-12-12T23:47:51.489Z,13.06
2018-12-12T23:53:00.822Z,13.30
2018-12-12T23:58:09.908Z,13.26
